Time;durP1;ratioP1;P1;durP2;ratioP2;P2;SDS_P1;SDS_P2;PMS_P1;PMS_P2;Temp;Humidity;BMP_temperature;BMP_pressure;BME280_temperature;BME280_humidity;BME280_pressure;Samples;Min_cycle;Max_cycle;Signal;HPM_P1;HPM_P2
2022/08/07 00:01:45;;;;;;;10.73;8.40;;;11.70;99.90;;;;;;5041264;28;20458;-71
2022/08/07 00:04:10;;;;;;;10.05;7.78;;;11.70;99.90;;;;;;5042768;28;20554;-72
2022/08/07 00:06:36;;;;;;;9.82;7.95;;;11.70;99.90;;;;;;5030075;28;20986;-72
2022/08/07 00:09:03;;;;;;;9.23;7.25;;;11.60;99.90;;;;;;5042082;28;20052;-71
2022/08/07 00:11:29;;;;;;;11.00;7.80;;;11.50;99.90;;;;;;5039632;28;20042;-71
2022/08/07 00:13:54;;;;;;;10.25;8.20;;;11.40;99.90;;;;;;5039624;28;20676;-71
2022/08/07 00:16:20;;;;;;;10.60;7.80;;;11.40;99.90;;;;;;5038284;28;20048;-72
2022/08/07 00:18:46;;;;;;;9.82;7.75;;;11.40;99.90;;;;;;5035331;28;20138;-71
2022/08/07 00:21:11;;;;;;;9.20;7.55;;;11.40;99.90;;;;;;5037637;28;20057;-71
2022/08/07 00:23:39;;;;;;;12.50;8.60;;;11.40;99.90;;;;;;5042758;28;20140;-71
2022/08/07 00:26:08;;;;;;;10.95;7.90;;;11.50;99.90;;;;;;5039563;28;20128;-72
2022/08/07 00:28:34;;;;;;;9.88;7.68;;;11.50;99.90;;;;;;5026634;28;20055;-72
2022/08/07 00:31:02;;;;;;;10.07;7.68;;;11.60;99.90;;;;;;5039240;28;20552;-72
2022/08/07 00:33:28;;;;;;;12.65;7.63;;;11.60;99.90;;;;;;5040734;28;20049;-71
2022/08/07 00:35:55;;;;;;;11.90;7.95;;;11.60;99.90;;;;;;5044816;28;20044;-72
2022/08/07 00:38:21;;;;;;;11.23;8.15;;;11.80;99.90;;;;;;5027433;28;20791;-72
2022/08/07 00:40:47;;;;;;;12.55;8.15;;;11.60;99.90;;;;;;5043927;28;20055;-72
2022/08/07 00:43:13;;;;;;;11.40;8.05;;;11.60;99.90;;;;;;5042690;28;20128;-72
2022/08/07 00:45:39;;;;;;;11.55;8.43;;;11.60;99.90;;;;;;5036422;28;20033;-72
2022/08/07 00:48:07;;;;;;;12.60;8.48;;;11.70;99.90;;;;;;5033671;28;20404;-71
2022/08/07 00:50:33;;;;;;;10.70;7.97;;;11.70;99.90;;;;;;5050602;28;20098;-71
2022/08/07 00:52:59;;;;;;;10.27;8.30;;;11.70;99.90;;;;;;5037063;28;20140;-72
2022/08/07 00:55:25;;;;;;;13.70;8.45;;;11.70;99.90;;;;;;5040576;28;20136;-72
2022/08/07 00:57:50;;;;;;;10.38;8.18;;;11.70;99.90;;;;;;5024319;28;20052;-72
2022/08/07 01:00:17;;;;;;;11.80;8.88;;;11.70;99.90;;;;;;5044629;28;20522;-72
2022/08/07 01:02:44;;;;;;;11.65;8.68;;;11.60;99.90;;;;;;5043091;28;20080;-71
2022/08/07 01:05:11;;;;;;;11.15;8.57;;;11.60;99.90;;;;;;5044400;28;20037;-71
2022/08/07 01:07:37;;;;;;;10.40;8.20;;;11.70;99.90;;;;;;5021751;28;20125;-71
2022/08/07 01:10:04;;;;;;;10.18;8.07;;;11.60;99.90;;;;;;5037992;28;20116;-72
2022/08/07 01:12:30;;;;;;;10.35;7.93;;;11.60;99.90;;;;;;5037508;28;20046;-72
2022/08/07 01:14:59;;;;;;;11.98;7.93;;;11.70;99.90;;;;;;5040574;28;20121;-72
2022/08/07 01:17:25;;;;;;;12.15;8.25;;;11.70;99.90;;;;;;5022552;28;20049;-72
2022/08/07 01:19:54;;;;;;;10.93;8.77;;;11.70;99.90;;;;;;5050029;28;20400;-71
2022/08/07 01:22:21;;;;;;;11.20;8.52;;;11.70;99.90;;;;;;5035120;28;20094;-71
2022/08/07 01:24:47;;;;;;;12.70;8.57;;;11.80;99.90;;;;;;5037593;28;20072;-71
2022/08/07 01:27:14;;;;;;;11.82;8.43;;;11.70;99.90;;;;;;5026892;28;20045;-73
2022/08/07 01:29:40;;;;;;;12.07;8.38;;;11.70;99.90;;;;;;5031017;28;20041;-71
2022/08/07 01:32:06;;;;;;;12.05;8.48;;;11.70;99.90;;;;;;5039553;28;20045;-71
2022/08/07 01:34:32;;;;;;;13.73;8.75;;;11.70;99.90;;;;;;5050601;28;20045;-72
2022/08/07 01:36:59;;;;;;;12.05;8.40;;;11.80;99.90;;;;;;5018850;28;20045;-72
2022/08/07 01:39:28;;;;;;;11.38;8.80;;;11.80;99.90;;;;;;5033488;28;20447;-71
2022/08/07 01:41:54;;;;;;;12.75;9.38;;;11.90;99.90;;;;;;5040975;28;20029;-72
2022/08/07 01:44:20;;;;;;;12.75;8.32;;;11.90;99.90;;;;;;5033588;28;20046;-72
2022/08/07 01:46:45;;;;;;;11.30;8.30;;;11.80;99.90;;;;;;5035249;28;20065;-73
2022/08/07 01:49:11;;;;;;;11.13;8.60;;;11.90;99.90;;;;;;5049361;28;20124;-72
2022/08/07 01:51:39;;;;;;;13.98;8.77;;;11.90;99.90;;;;;;5049780;28;20052;-72
2022/08/07 01:54:08;;;;;;;11.80;8.55;;;12.00;99.90;;;;;;5049612;28;20065;-71
2022/08/07 01:56:44;;;;;;;11.73;8.20;;;11.80;99.90;;;;;;5036894;28;20404;-72
2022/08/07 01:59:20;;;;;;;11.80;8.57;;;11.80;99.90;;;;;;5044906;28;20474;-72
2022/08/07 02:01:55;;;;;;;12.15;9.00;;;11.70;99.90;;;;;;5031040;28;20127;-71
2022/08/07 02:04:36;;;;;;;11.35;9.10;;;11.50;99.90;;;;;;5046509;28;20059;-72
2022/08/07 02:07:03;;;;;;;;;;;11.40;99.90;;;;;;5035609;28;20049;-72
2022/08/07 02:09:31;;;;;;;10.82;8.35;;;11.20;99.90;;;;;;5049370;28;19990;-72
2022/08/07 02:11:57;;;;;;;9.65;7.65;;;11.10;99.90;;;;;;5045012;28;20053;-71
2022/08/07 02:14:27;;;;;;;9.85;7.93;;;11.10;99.90;;;;;;5030446;28;20057;-72
2022/08/07 02:16:54;;;;;;;10.73;8.48;;;11.00;99.90;;;;;;5024513;28;20041;-71
2022/08/07 02:19:20;;;;;;;11.70;8.20;;;11.00;99.90;;;;;;5048672;28;20041;-71
2022/08/07 02:21:48;;;;;;;9.80;7.70;;;11.00;99.90;;;;;;5047661;28;20045;-71
2022/08/07 02:24:16;;;;;;;12.55;8.45;;;11.00;99.90;;;;;;5038264;28;20045;-71
2022/08/07 02:26:42;;;;;;;11.55;8.02;;;11.00;99.90;;;;;;5021200;28;20128;-71
2022/08/07 02:29:09;;;;;;;9.98;7.75;;;10.90;99.90;;;;;;5026405;28;20045;-71
2022/08/07 02:31:36;;;;;;;10.57;7.50;;;10.70;99.90;;;;;;5042295;28;20064;-71
2022/08/07 02:34:06;;;;;;;8.32;6.38;;;10.60;99.90;;;;;;5029322;28;20049;-72
2022/08/07 02:36:32;;;;;;;10.30;7.60;;;10.50;99.90;;;;;;5023300;28;20048;-73
2022/08/07 02:39:01;;;;;;;9.70;6.80;;;10.50;99.90;;;;;;5039775;28;20098;-71
2022/08/07 02:41:28;;;;;;;9.95;6.05;;;10.40;99.90;;;;;;5049658;28;20492;-72
2022/08/07 02:43:56;;;;;;;9.40;6.47;;;10.30;99.90;;;;;;5034603;28;20496;-72
2022/08/07 02:46:25;;;;;;;8.05;6.18;;;10.30;99.90;;;;;;5034870;28;20095;-71
2022/08/07 02:48:52;;;;;;;11.38;6.18;;;10.30;99.90;;;;;;5044613;28;20135;-71
2022/08/07 02:51:22;;;;;;;9.57;6.22;;;10.30;99.90;;;;;;5048254;28;20140;-71
2022/08/07 02:53:53;;;;;;;11.95;6.68;;;10.30;99.90;;;;;;5048923;28;20514;-71
2022/08/07 02:56:21;;;;;;;8.20;5.82;;;10.30;99.90;;;;;;5039162;28;20041;-72
2022/08/07 02:58:48;;;;;;;8.90;7.00;;;10.30;99.90;;;;;;5044397;28;20055;-72
2022/08/07 03:01:15;;;;;;;10.02;6.97;;;10.30;99.90;;;;;;5048085;28;20415;-71
2022/08/07 03:03:41;;;;;;;10.80;6.47;;;10.30;99.90;;;;;;5047176;28;20057;-71
2022/08/07 03:06:07;;;;;;;9.32;6.65;;;10.10;99.90;;;;;;5038626;28;20504;-71
2022/08/07 03:08:33;;;;;;;7.30;5.70;;;10.10;99.90;;;;;;5040731;28;20546;-71
2022/08/07 03:11:01;;;;;;;7.95;6.20;;;10.10;99.90;;;;;;5051908;28;20053;-71
2022/08/07 03:13:26;;;;;;;8.73;6.40;;;10.00;99.90;;;;;;5052194;28;20679;-71
2022/08/07 03:15:53;;;;;;;8.88;6.03;;;10.00;99.90;;;;;;5047845;28;20040;-71
2022/08/07 03:18:20;;;;;;;7.45;5.88;;;10.00;99.90;;;;;;5037242;28;20045;-71
2022/08/07 03:20:46;;;;;;;10.05;6.68;;;9.90;99.90;;;;;;5053624;28;20186;-71
2022/08/07 03:23:13;;;;;;;8.88;6.32;;;9.90;99.90;;;;;;5048771;28;20083;-72
2022/08/07 03:25:40;;;;;;;9.20;6.72;;;10.00;99.90;;;;;;5033337;28;20107;-72
2022/08/07 03:28:12;;;;;;;7.75;5.72;;;10.10;99.90;;;;;;5030823;28;20052;-71
2022/08/07 03:30:39;;;;;;;7.35;6.00;;;10.00;99.90;;;;;;5033441;28;20403;-71
2022/08/07 03:33:07;;;;;;;8.82;6.55;;;10.00;99.90;;;;;;5031512;28;20524;-72
2022/08/07 03:35:33;;;;;;;8.00;6.30;;;9.90;99.90;;;;;;5032829;28;20560;-71
2022/08/07 03:38:02;;;;;;;10.15;6.72;;;9.90;99.90;;;;;;5018025;28;20125;-71
2022/08/07 03:40:28;;;;;;;9.63;6.70;;;9.90;99.90;;;;;;5043522;28;20041;-71
2022/08/07 03:42:55;;;;;;;9.65;7.15;;;10.00;99.90;;;;;;5047133;28;20119;-71
2022/08/07 03:45:24;;;;;;;9.40;7.22;;;10.10;99.90;;;;;;5040750;28;20096;-72
2022/08/07 03:47:51;;;;;;;9.85;7.13;;;10.10;99.90;;;;;;5036478;28;20499;-71
2022/08/07 03:50:18;;;;;;;10.65;7.10;;;10.10;99.90;;;;;;5053037;28;20515;-71
2022/08/07 03:52:45;;;;;;;11.23;7.07;;;10.20;99.90;;;;;;5051636;28;20479;-72
2022/08/07 03:55:11;;;;;;;10.20;6.85;;;10.10;99.90;;;;;;5052947;28;20525;-71
2022/08/07 03:57:38;;;;;;;11.60;7.25;;;10.10;99.90;;;;;;5035226;28;20041;-71
2022/08/07 04:00:04;;;;;;;8.88;7.03;;;10.10;99.90;;;;;;5053046;28;20040;-71
2022/08/07 04:02:30;;;;;;;11.75;7.53;;;10.10;99.90;;;;;;5047940;28;20053;-71
2022/08/07 04:04:56;;;;;;;10.68;7.85;;;10.10;99.90;;;;;;5043732;28;20134;-71
2022/08/07 04:07:22;;;;;;;12.50;8.75;;;10.10;99.90;;;;;;5018522;28;20041;-70
2022/08/07 04:09:49;;;;;;;13.90;9.27;;;10.30;99.90;;;;;;5048667;28;20083;-72
2022/08/07 04:12:15;;;;;;;15.07;9.77;;;10.30;99.90;;;;;;5038472;28;20053;-71
2022/08/07 04:14:42;;;;;;;14.60;9.68;;;10.40;99.90;;;;;;5039079;28;20045;-71
2022/08/07 04:17:08;;;;;;;12.70;8.85;;;10.50;99.90;;;;;;5031481;28;20120;-71
2022/08/07 04:19:35;;;;;;;12.13;9.57;;;10.50;99.90;;;;;;5051220;28;20103;-71
2022/08/07 04:22:01;;;;;;;14.98;10.02;;;10.60;99.90;;;;;;5049937;28;20550;-71
2022/08/07 04:24:27;;;;;;;13.90;10.00;;;10.60;99.90;;;;;;5038216;28;20049;-71
2022/08/07 04:26:53;;;;;;;18.95;9.73;;;10.70;99.90;;;;;;5016959;28;20045;-71
2022/08/07 04:29:19;;;;;;;12.73;9.35;;;10.70;99.90;;;;;;5059113;28;20045;-71
2022/08/07 04:31:45;;;;;;;13.00;9.57;;;10.80;99.90;;;;;;5052218;28;20044;-71
2022/08/07 04:34:11;;;;;;;12.80;9.43;;;10.80;99.90;;;;;;5050223;28;20079;-71
2022/08/07 04:36:39;;;;;;;16.38;10.40;;;10.90;99.90;;;;;;5018259;28;21001;-71
2022/08/07 04:39:05;;;;;;;14.52;9.73;;;10.90;99.90;;;;;;5030407;28;20567;-72
2022/08/07 04:41:31;;;;;;;14.13;9.18;;;10.90;99.90;;;;;;5050685;28;20052;-71
2022/08/07 04:44:00;;;;;;;14.27;9.90;;;11.00;99.90;;;;;;5036287;28;20489;-71
2022/08/07 04:46:41;;;;;;;14.25;9.07;;;11.00;99.90;;;;;;5037251;28;20100;-72
2022/08/07 04:49:26;;;;;;;14.32;9.98;;;11.20;99.90;;;;;;5036234;28;20124;-71
2022/08/07 04:52:36;;;;;;;15.88;9.45;;;11.10;99.90;;;;;;5031685;28;20045;-71
2022/08/07 04:55:21;;;;;;;12.75;9.23;;;11.10;99.90;;;;;;5048663;28;20057;-71
2022/08/07 04:58:25;;;;;;;14.30;9.38;;;11.20;99.90;;;;;;5032534;28;20049;-71
2022/08/07 05:01:02;;;;;;;12.90;8.25;;;11.20;99.90;;;;;;5034328;28;20156;-72
2022/08/07 05:03:41;;;;;;;13.90;9.00;;;11.40;99.90;;;;;;5029543;28;20048;-71
2022/08/07 05:06:17;;;;;;;14.10;8.48;;;11.40;99.90;;;;;;5026915;28;20496;-72
2022/08/07 05:09:03;;;;;;;12.73;9.07;;;11.50;99.90;;;;;;5024754;28;20052;-72
2022/08/07 05:11:35;;;;;;;14.82;9.15;;;11.50;99.90;;;;;;5033605;28;20061;-72
2022/08/07 05:14:09;;;;;;;11.18;8.63;;;11.60;99.90;;;;;;5029061;28;20053;-72
2022/08/07 05:16:37;;;;;;;12.48;8.43;;;11.70;99.90;;;;;;5037773;28;20049;-72
2022/08/07 05:19:09;;;;;;;15.07;9.07;;;11.80;99.90;;;;;;5032725;28;20435;-72
2022/08/07 05:21:36;;;;;;;10.40;7.93;;;11.90;99.90;;;;;;5038126;28;20045;-71
2022/08/07 05:24:10;;;;;;;10.90;7.45;;;12.00;99.90;;;;;;5040466;28;20049;-72
2022/08/07 05:26:37;;;;;;;10.40;7.65;;;12.00;99.90;;;;;;5026806;28;20571;-71
2022/08/07 05:29:06;;;;;;;10.88;8.23;;;12.20;99.90;;;;;;5034908;28;20041;-71
2022/08/07 05:31:37;;;;;;;12.68;8.07;;;12.20;99.90;;;;;;5038654;28;20579;-71
2022/08/07 05:34:06;;;;;;;10.15;8.10;;;12.30;99.90;;;;;;5039257;28;20041;-72
2022/08/07 05:36:33;;;;;;;11.32;7.57;;;12.40;99.90;;;;;;5026232;28;20604;-73
2022/08/07 05:39:00;;;;;;;11.13;8.68;;;12.50;99.90;;;;;;5041706;28;20044;-72
2022/08/07 05:41:26;;;;;;;11.13;8.15;;;12.60;99.90;;;;;;5044901;28;20049;-74
2022/08/07 05:43:54;;;;;;;12.07;7.80;;;12.70;99.90;;;;;;5034091;28;20044;-72
2022/08/07 05:46:21;;;;;;;11.38;7.90;;;12.80;99.90;;;;;;5040040;28;20052;-72
2022/08/07 05:48:49;;;;;;;10.98;7.75;;;12.80;99.90;;;;;;5044725;28;20049;-73
2022/08/07 05:51:15;;;;;;;11.10;7.47;;;12.90;99.90;;;;;;5031916;28;20175;-73
2022/08/07 05:53:41;;;;;;;9.95;6.78;;;13.00;99.90;;;;;;5037662;28;20075;-73
2022/08/07 05:56:12;;;;;;;10.80;7.60;;;13.20;99.90;;;;;;5048690;28;20621;-75
2022/08/07 05:58:39;;;;;;;9.18;7.32;;;13.20;99.90;;;;;;5042332;28;20037;-73
2022/08/07 06:01:07;;;;;;;9.23;7.05;;;13.40;99.90;;;;;;5050568;28;20049;-73
2022/08/07 06:03:35;;;;;;;11.15;7.40;;;13.50;99.90;;;;;;5035576;28;20048;-73
2022/08/07 06:06:01;;;;;;;11.35;7.38;;;13.60;99.90;;;;;;5036765;28;20500;-72
2022/08/07 06:08:28;;;;;;;11.32;7.07;;;13.70;99.90;;;;;;5032550;28;20142;-73
2022/08/07 06:10:53;;;;;;;12.27;6.63;;;13.70;99.90;;;;;;5035491;28;20049;-74
2022/08/07 06:13:19;;;;;;;14.82;7.53;;;13.80;99.90;;;;;;5034958;28;20045;-73
2022/08/07 06:15:48;;;;;;;9.60;7.13;;;13.90;99.90;;;;;;5048254;28;20049;-73
2022/08/07 06:18:14;;;;;;;8.38;5.85;;;14.00;99.90;;;;;;5013560;28;20034;-74
2022/08/07 06:20:43;;;;;;;9.93;6.05;;;14.20;99.90;;;;;;5037933;28;20053;-73
2022/08/07 06:23:09;;;;;;;9.23;6.35;;;14.40;99.90;;;;;;5038250;28;20042;-74
2022/08/07 06:25:36;;;;;;;7.70;5.97;;;14.40;99.90;;;;;;5031346;28;20076;-73
2022/08/07 06:28:06;;;;;;;8.55;5.93;;;14.40;99.90;;;;;;5014271;28;20049;-73
2022/08/07 06:30:34;;;;;;;6.97;5.35;;;14.50;99.90;;;;;;5028814;28;20088;-73
2022/08/07 06:33:00;;;;;;;9.13;6.93;;;14.60;99.90;;;;;;5030739;28;20531;-73
2022/08/07 06:35:27;;;;;;;7.65;5.50;;;14.70;99.90;;;;;;5040366;28;20695;-73
2022/08/07 06:37:52;;;;;;;8.02;5.50;;;14.70;99.90;;;;;;5017904;28;20043;-73
2022/08/07 06:40:18;;;;;;;8.00;5.75;;;14.80;99.90;;;;;;5049390;28;20049;-73
2022/08/07 06:42:47;;;;;;;8.90;5.53;;;14.90;99.90;;;;;;5045849;28;20071;-73
2022/08/07 06:45:15;;;;;;;7.07;5.32;;;15.00;99.90;;;;;;5022664;28;20214;-74
2022/08/07 06:47:41;;;;;;;7.07;5.10;;;15.00;99.90;;;;;;5032060;28;20041;-75
2022/08/07 06:50:08;;;;;;;9.43;4.88;;;15.20;99.90;;;;;;5049724;28;20435;-73
2022/08/07 06:52:36;;;;;;;8.90;5.53;;;15.40;99.90;;;;;;5047492;28;20496;-73
2022/08/07 06:55:15;;;;;;;6.85;5.13;;;15.40;99.90;;;;;;5039005;28;20053;-74
2022/08/07 06:57:43;;;;;;;7.30;5.00;;;15.40;99.90;;;;;;5030965;28;20667;-74
2022/08/07 07:00:09;;;;;;;6.75;5.35;;;15.60;99.90;;;;;;5038829;28;20163;-74
2022/08/07 07:02:36;;;;;;;6.68;4.78;;;15.70;99.90;;;;;;5042284;28;20117;-74
2022/08/07 07:05:02;;;;;;;6.13;4.57;;;15.70;99.90;;;;;;5029619;28;20119;-73
2022/08/07 07:07:28;;;;;;;6.55;3.90;;;15.90;99.90;;;;;;5018118;28;20059;-74
2022/08/07 07:09:53;;;;;;;6.53;4.40;;;15.90;99.90;;;;;;5049747;28;20480;-75
2022/08/07 07:12:38;;;;;;;6.63;4.13;;;15.90;99.90;;;;;;5042018;28;20053;-74
2022/08/07 07:15:21;;;;;;;6.88;3.50;;;16.00;99.90;;;;;;5040260;28;20209;-73
2022/08/07 07:18:02;;;;;;;4.95;3.60;;;16.10;99.90;;;;;;5013675;28;20048;-75
2022/08/07 07:20:36;;;;;;;7.00;3.33;;;16.20;99.90;;;;;;5063580;28;20515;-75
2022/08/07 07:23:05;;;;;;;7.30;3.30;;;16.40;99.90;;;;;;5047132;28;20587;-75
2022/08/07 07:25:32;;;;;;;4.70;3.10;;;16.40;99.90;;;;;;5029158;28;20049;-73
2022/08/07 07:28:11;;;;;;;7.53;3.25;;;16.50;99.90;;;;;;5014434;28;20111;-73
2022/08/07 07:30:41;;;;;;;3.20;2.65;;;16.40;99.90;;;;;;5049615;28;20103;-73
2022/08/07 07:33:11;;;;;;;5.18;2.92;;;16.40;99.90;;;;;;5030842;28;20601;-74
2022/08/07 07:35:39;;;;;;;4.65;3.45;;;16.40;99.90;;;;;;5039106;28;20057;-74
2022/08/07 07:38:05;;;;;;;3.30;2.55;;;16.40;99.90;;;;;;5034022;28;20053;-74
2022/08/07 07:40:33;;;;;;;5.82;3.40;;;16.60;99.90;;;;;;5036087;28;20064;-74
2022/08/07 07:43:02;;;;;;;5.93;3.45;;;16.70;99.90;;;;;;5041834;28;20056;-74
2022/08/07 07:45:29;;;;;;;5.80;3.40;;;16.70;99.90;;;;;;5039191;28;20064;-74
2022/08/07 07:47:56;;;;;;;8.30;4.57;;;16.80;99.90;;;;;;5032881;28;20408;-74
2022/08/07 07:50:23;;;;;;;6.28;4.75;;;16.80;99.90;;;;;;5049102;28;20095;-73
2022/08/07 07:52:51;;;;;;;9.45;4.70;;;16.80;99.90;;;;;;5034916;28;20041;-75
2022/08/07 07:55:18;;;;;;;5.63;4.28;;;16.80;99.90;;;;;;5032998;28;20057;-74
2022/08/07 07:57:49;;;;;;;6.05;4.53;;;16.80;99.90;;;;;;5033434;28;20037;-73
2022/08/07 08:00:15;;;;;;;8.20;4.60;;;16.90;99.90;;;;;;5052904;28;20060;-73
2022/08/07 08:02:42;;;;;;;5.07;4.53;;;16.90;99.90;;;;;;5045159;28;20053;-73
2022/08/07 08:05:09;;;;;;;6.53;4.65;;;16.90;99.90;;;;;;5045261;28;20186;-74
2022/08/07 08:07:37;;;;;;;6.70;4.72;;;17.00;99.90;;;;;;5036204;28;20484;-73
2022/08/07 08:10:04;;;;;;;8.48;5.10;;;17.10;99.90;;;;;;5052984;28;20056;-73
2022/08/07 08:12:32;;;;;;;7.53;4.82;;;17.00;99.90;;;;;;5040023;28;20522;-73
2022/08/07 08:14:57;;;;;;;5.47;4.70;;;17.10;99.90;;;;;;5040705;28;20056;-73
2022/08/07 08:17:24;;;;;;;5.68;4.15;;;17.20;99.90;;;;;;5016046;28;20049;-71
2022/08/07 08:19:54;;;;;;;9.38;4.43;;;17.20;99.90;;;;;;5046851;28;20055;-72
2022/08/07 08:27:53;;;;;;;5.70;4.03;;;17.50;99.90;;;;;;5025495;28;20076;-72
2022/08/07 08:30:20;;;;;;;5.13;3.70;;;17.70;99.90;;;;;;5043177;28;20049;-74
2022/08/07 08:32:50;;;;;;;7.68;4.43;;;17.70;99.90;;;;;;5044967;28;20123;-72
2022/08/07 08:35:20;;;;;;;5.75;4.35;;;17.60;99.90;;;;;;5031326;28;20893;-72
2022/08/07 08:37:47;;;;;;;5.80;4.32;;;17.50;99.90;;;;;;5016646;28;20064;-73
2022/08/07 08:40:20;;;;;;;7.43;4.65;;;17.60;99.90;;;;;;5031087;28;20107;-73
2022/08/07 08:43:08;;;;;;;7.68;4.30;;;17.70;99.90;;;;;;5035006;28;20048;-73
2022/08/07 08:45:43;;;;;;;6.10;4.28;;;17.80;99.90;;;;;;5048530;28;20484;-73
2022/08/07 08:48:35;;;;;;;6.53;4.28;;;17.90;99.90;;;;;;5035475;28;20048;-72
2022/08/07 08:51:10;;;;;;;6.97;3.95;;;17.90;99.90;;;;;;5051991;28;20044;-73
2022/08/07 08:53:45;;;;;;;5.88;3.95;;;18.00;99.90;;;;;;5051522;28;20061;-73
2022/08/07 08:56:17;;;;;;;6.45;3.70;;;18.00;99.90;;;;;;5044033;28;20067;-72
2022/08/07 08:59:12;;;;;;;6.63;4.10;;;18.00;99.90;;;;;;5046335;28;20099;-72
2022/08/07 09:01:45;;;;;;;5.35;3.42;;;17.90;99.90;;;;;;5050383;28;20053;-73
2022/08/07 09:04:33;;;;;;;4.20;3.30;;;18.20;99.90;;;;;;5035504;28;20045;-74
2022/08/07 09:07:12;;;;;;;5.93;3.78;;;18.30;99.90;;;;;;5026285;28;20120;-73
2022/08/07 09:10:16;;;;;;;5.97;3.42;;;18.10;99.90;;;;;;5049386;28;20407;-73
2022/08/07 09:13:20;;;;;;;5.43;3.92;;;18.10;99.90;;;;;;5038006;28;20516;-72
2022/08/07 09:16:11;;;;;;;7.38;4.00;;;17.90;99.90;;;;;;5033536;28;20053;-73
2022/08/07 09:18:52;;;;;;;5.70;3.42;;;18.20;99.90;;;;;;5038303;28;20041;-76
2022/08/07 09:21:29;;;;;;;5.07;3.55;;;18.40;99.90;;;;;;5037681;28;20056;-73
2022/08/07 09:24:24;;;;;;;4.00;3.42;;;18.60;99.90;;;;;;5042409;28;20080;-72
2022/08/07 09:27:04;;;;;;;4.20;3.30;;;18.70;99.90;;;;;;5015666;28;20056;-72
2022/08/07 09:29:48;;;;;;;7.00;3.40;;;18.60;99.90;;;;;;5030533;28;20049;-73
2022/08/07 09:32:35;;;;;;;4.18;2.83;;;18.50;99.90;;;;;;5049182;28;20179;-73
2022/08/07 09:35:01;;;;;;;5.55;3.40;;;18.60;99.90;;;;;;5051434;28;20052;-73
2022/08/07 09:37:40;;;;;;;6.88;2.95;;;18.60;99.90;;;;;;5033662;28;20416;-71
2022/08/07 09:40:06;;;;;;;4.25;2.75;;;18.60;99.90;;;;;;5046800;28;20457;-72
2022/08/07 09:43:09;;;;;;;3.33;2.72;;;18.90;99.90;;;;;;5031155;28;20131;-73
2022/08/07 09:46:09;;;;;;;5.22;2.50;;;18.90;99.90;;;;;;5030485;28;20049;-73
2022/08/07 09:49:02;;;;;;;4.45;2.65;;;19.00;99.90;;;;;;5031864;28;20045;-73
2022/08/07 09:51:42;;;;;;;5.38;2.67;;;19.10;99.90;;;;;;5045007;28;20539;-72
2022/08/07 09:54:16;;;;;;;3.38;2.60;;;19.30;99.90;;;;;;5050023;28;20060;-72
2022/08/07 09:57:14;;;;;;;3.70;2.58;;;19.20;99.90;;;;;;5036733;28;20128;-73
2022/08/07 09:59:58;;;;;;;3.40;2.33;;;19.30;99.90;;;;;;5033376;28;20045;-72
2022/08/07 10:02:48;;;;;;;3.42;2.13;;;19.40;99.90;;;;;;5031206;28;20795;-73
2022/08/07 10:05:16;;;;;;;4.43;2.67;;;19.80;99.90;;;;;;5050814;28;20091;-73
2022/08/07 10:08:26;;;;;;;3.92;2.33;;;19.60;99.90;;;;;;5024744;28;20061;-73
2022/08/07 10:10:57;;;;;;;3.75;2.72;;;19.80;99.90;;;;;;5035662;28;20055;-75
2022/08/07 10:13:36;;;;;;;3.72;2.63;;;19.80;99.90;;;;;;5043969;28;20049;-73
2022/08/07 10:16:18;;;;;;;3.83;2.70;;;19.40;99.90;;;;;;5044599;28;20045;-73
2022/08/07 10:18:50;;;;;;;5.22;2.78;;;19.30;99.90;;;;;;5023643;28;20083;-74
2022/08/07 10:21:41;;;;;;;3.28;2.50;;;19.10;99.90;;;;;;5043153;28;20048;-73
2022/08/07 10:24:31;;;;;;;5.18;2.53;;;18.90;99.90;;;;;;5029643;28;20037;-73
2022/08/07 10:27:10;;;;;;;3.30;2.45;;;19.00;99.90;;;;;;5017768;28;20048;-72
2022/08/07 10:30:10;;;;;;;5.30;2.70;;;19.10;99.90;;;;;;5031347;28;20049;-79
2022/08/07 10:32:45;;;;;;;4.32;2.58;;;19.20;99.90;;;;;;5047918;28;20484;-73
2022/08/07 10:35:48;;;;;;;5.28;2.70;;;19.50;99.90;;;;;;5048878;28;20063;-73
2022/08/07 10:38:31;;;;;;;3.80;2.47;;;19.50;99.90;;;;;;5034147;28;20557;-72
2022/08/07 10:40:57;;;;;;;4.20;2.00;;;19.30;99.90;;;;;;5048988;28;20063;-71
2022/08/07 10:43:34;;;;;;;4.75;2.28;;;19.20;99.90;;;;;;5041713;28;20080;-72
2022/08/07 10:46:06;;;;;;;4.13;2.00;;;19.20;99.90;;;;;;5046805;28;20048;-71
2022/08/07 10:48:47;;;;;;;4.00;2.30;;;19.20;99.90;;;;;;5036708;28;20091;-73
2022/08/07 10:51:35;;;;;;;2.70;2.42;;;19.30;99.90;;;;;;5046433;28;20107;-72
2022/08/07 10:54:20;;;;;;;3.92;2.58;;;19.20;99.90;;;;;;5029340;28;20053;-72
2022/08/07 10:57:23;;;;;;;2.58;1.90;;;19.40;99.90;;;;;;5034684;28;20481;-73
2022/08/07 10:59:52;;;;;;;4.85;2.38;;;19.60;99.90;;;;;;5047954;28;20048;-71
2022/08/07 11:02:35;;;;;;;4.40;2.55;;;19.70;99.90;;;;;;5046465;28;20083;-74
2022/08/07 11:05:10;;;;;;;3.50;2.20;;;19.50;99.90;;;;;;5030039;28;20046;-72
2022/08/07 11:07:44;;;;;;;3.05;1.95;;;19.50;99.90;;;;;;5013612;28;20037;-73
2022/08/07 11:10:22;;;;;;;2.17;1.83;;;19.40;99.90;;;;;;5028238;28;20045;-72
2022/08/07 11:13:01;;;;;;;3.28;2.10;;;19.30;99.90;;;;;;5036082;28;20038;-71
2022/08/07 11:15:33;;;;;;;2.95;2.38;;;19.20;99.90;;;;;;5039922;28;20053;-72
2022/08/07 11:18:08;;;;;;;3.78;2.13;;;19.20;99.90;;;;;;5025514;28;20495;-71
2022/08/07 11:21:00;;;;;;;2.75;2.00;;;19.20;99.90;;;;;;5048402;28;20080;-72
2022/08/07 11:23:42;;;;;;;;;;;19.10;99.90;;;;;;5035995;28;20076;-72
2022/08/07 11:26:25;;;;;;;3.78;1.98;;;19.10;99.90;;;;;;5025169;28;19921;-72
2022/08/07 11:29:06;;;;;;;3.05;2.30;;;19.10;99.90;;;;;;5029573;28;20060;-72
2022/08/07 11:32:04;;;;;;;2.00;1.88;;;19.10;99.90;;;;;;5034157;28;20090;-71
2022/08/07 11:34:37;;;;;;;2.70;2.10;;;19.10;99.90;;;;;;5041172;28;20040;-71
2022/08/07 11:37:21;;;;;;;4.55;2.50;;;19.00;99.90;;;;;;5019705;28;20057;-72
2022/08/07 11:39:58;;;;;;;2.30;1.80;;;19.20;99.90;;;;;;5037591;28;20049;-71
2022/08/07 11:42:47;;;;;;;4.13;2.15;;;19.40;99.90;;;;;;5043702;28;20130;-71
2022/08/07 11:45:39;;;;;;;4.22;1.60;;;19.70;99.90;;;;;;5039230;28;20120;-71
2022/08/07 11:48:24;;;;;;;2.15;1.50;;;19.80;99.90;;;;;;5015271;28;20424;-70
2022/08/07 11:51:09;;;;;;;2.90;1.65;;;20.00;99.90;;;;;;5038371;28;20060;-72
2022/08/07 11:53:46;;;;;;;3.15;1.77;;;20.10;99.90;;;;;;5034544;28;20124;-71
2022/08/07 11:56:56;;;;;;;2.13;1.35;;;20.20;99.90;;;;;;5030403;28;20053;-71
2022/08/07 11:59:32;;;;;;;2.75;1.30;;;20.20;99.90;;;;;;5023319;28;20509;-71
2022/08/07 12:02:18;;;;;;;1.65;1.40;;;20.30;99.90;;;;;;5046865;28;20164;-71
2022/08/07 12:05:26;;;;;;;2.92;1.60;;;20.20;99.90;;;;;;5027831;28;20579;-73
2022/08/07 12:07:55;;;;;;;3.25;1.88;;;20.20;99.90;;;;;;5002979;28;20042;-70
2022/08/07 12:10:33;;;;;;;5.10;1.85;;;20.20;99.90;;;;;;5043792;28;20825;-71
2022/08/07 12:13:17;;;;;;;2.85;1.85;;;20.20;99.90;;;;;;5040325;28;20524;-72
2022/08/07 12:16:13;;;;;;;3.15;1.67;;;20.10;99.90;;;;;;5045650;28;20037;-72
2022/08/07 12:19:04;;;;;;;4.63;2.33;;;20.00;99.90;;;;;;5039343;28;20060;-74
2022/08/07 12:22:05;;;;;;;5.45;2.40;;;20.00;99.90;;;;;;5038441;28;20507;-73
2022/08/07 12:27:40;;;;;;;3.55;2.00;;;19.90;99.90;;;;;;5019297;28;20080;-71
2022/08/07 12:30:07;;;;;;;5.22;2.25;;;19.80;99.90;;;;;;5025802;28;20053;-70
2022/08/07 12:32:57;;;;;;;4.80;2.35;;;19.80;99.90;;;;;;5034525;28;20046;-72
2022/08/07 12:35:24;;;;;;;6.20;2.53;;;19.80;99.90;;;;;;5037488;28;20057;-73
2022/08/07 12:37:51;;;;;;;3.55;2.33;;;19.80;99.90;;;;;;5025404;28;20042;-72
2022/08/07 12:40:20;;;;;;;4.10;2.25;;;20.00;99.90;;;;;;5030346;28;20064;-72
2022/08/07 12:42:50;;;;;;;2.85;1.95;;;20.10;99.90;;;;;;5031222;28;20110;-71
2022/08/07 12:45:21;;;;;;;4.25;2.10;;;20.20;99.90;;;;;;5037237;28;20127;-73
2022/08/07 12:48:17;;;;;;;4.07;1.98;;;20.40;99.90;;;;;;5016529;28;20077;-71
2022/08/07 12:50:57;;;;;;;3.47;1.70;;;20.60;99.90;;;;;;5039035;28;20412;-71
2022/08/07 12:53:48;;;;;;;3.63;2.45;;;20.60;99.90;;;;;;5034428;28;20519;-71
2022/08/07 12:56:36;;;;;;;2.88;1.90;;;20.60;99.90;;;;;;5018231;28;20060;-75
2022/08/07 12:59:04;;;;;;;4.13;1.67;;;20.40;99.90;;;;;;5036735;28;20037;-72
2022/08/07 13:02:01;;;;;;;3.15;1.85;;;20.50;99.90;;;;;;5041564;28;20419;-73
2022/08/07 13:04:45;;;;;;;3.17;1.90;;;20.50;99.90;;;;;;5046406;28;20932;-71
2022/08/07 13:07:49;;;;;;;4.35;1.98;;;20.50;99.90;;;;;;5021933;28;20124;-75
2022/08/07 13:10:46;;;;;;;3.85;1.83;;;20.50;99.90;;;;;;5042342;28;20524;-71
2022/08/07 13:13:15;;;;;;;2.67;1.60;;;20.50;99.90;;;;;;5045110;28;20100;-71
2022/08/07 13:16:06;;;;;;;5.00;1.75;;;20.40;99.90;;;;;;5053107;28;20048;-70
2022/08/07 13:18:44;;;;;;;2.92;1.65;;;20.40;99.90;;;;;;5019926;28;20123;-71
2022/08/07 13:21:23;;;;;;;3.00;1.70;;;20.30;99.90;;;;;;5038773;28;20041;-71
2022/08/07 13:24:30;;;;;;;4.20;1.52;;;20.50;99.90;;;;;;5045555;28;20667;-71